Time;durP1;ratioP1;P1;durP2;ratioP2;P2;SDS_P1;SDS_P2;PMS_P1;PMS_P2;Temp;Humidity;BMP_temperature;BMP_pressure;BME280_temperature;BME280_humidity;BME280_pressure;Samples;Min_cycle;Max_cycle;Signal;HPM_P1;HPM_P2
2023/01/30 00:01:30;;;;;;;27.48;6.70;;;;;;;7.22;100.00;101775.91;5030678;28;20055;-41
2023/01/30 00:03:55;;;;;;;28.08;7.50;;;;;;;7.21;100.00;101780.41;5030213;28;20061;-41
2023/01/30 00:06:21;;;;;;;25.50;7.03;;;;;;;7.22;100.00;101767.88;5030915;28;20144;-41
2023/01/30 00:08:47;;;;;;;26.40;6.18;;;;;;;7.18;100.00;101758.41;5022423;28;20109;-41
2023/01/30 00:11:13;;;;;;;41.90;7.38;;;;;;;7.14;100.00;101744.44;5010783;28;20062;-41
2023/01/30 00:13:39;;;;;;;34.33;7.30;;;;;;;7.10;100.00;101751.06;5011462;28;20540;-42
2023/01/30 00:16:05;;;;;;;40.70;6.70;;;;;;;7.07;100.00;101751.34;5010908;28;20053;-40
2023/01/30 00:18:30;;;;;;;38.97;7.35;;;;;;;7.05;100.00;101747.94;5016350;28;20022;-43
2023/01/30 00:21:00;;;;;;;35.42;6.53;;;;;;;7.03;100.00;101753.44;5029007;28;20416;-42
2023/01/30 00:23:26;;;;;;;25.23;6.35;;;;;;;7.06;100.00;101743.44;5024319;28;20052;-42
2023/01/30 00:25:52;;;;;;;33.22;5.70;;;;;;;7.04;100.00;101744.41;5030676;28;20018;-42
2023/01/30 00:28:17;;;;;;;33.88;7.10;;;;;;;7.04;100.00;101736.38;5029809;28;20428;-42
2023/01/30 00:30:43;;;;;;;39.08;5.60;;;;;;;7.05;100.00;101737.22;5021048;28;20034;-41
2023/01/30 00:33:09;;;;;;;39.80;6.82;;;;;;;7.05;100.00;101742.59;5010307;28;20058;-41
2023/01/30 00:35:34;;;;;;;37.60;6.28;;;;;;;7.06;100.00;101740.75;5010891;28;20033;-42
2023/01/30 00:38:00;;;;;;;50.03;7.10;;;;;;;7.06;100.00;101738.94;5011338;28;20369;-42
2023/01/30 00:40:26;;;;;;;27.75;6.05;;;;;;;7.08;100.00;101720.06;5029625;28;20451;-43
2023/01/30 00:48:20;;;;;;;29.88;5.63;;;;;;;7.07;100.00;101713.00;5020195;28;20090;-41
2023/01/30 00:50:45;;;;;;;26.75;6.10;;;;;;;7.06;100.00;101720.22;5027724;28;20034;-41
2023/01/30 00:53:11;;;;;;;38.47;5.57;;;;;;;7.06;100.00;101696.13;5018795;28;20036;-42
2023/01/30 00:55:37;;;;;;;29.13;6.28;;;;;;;7.04;100.00;101685.53;5029963;28;20056;-42
2023/01/30 00:58:02;;;;;;;27.60;5.13;;;;;;;7.03;100.00;101666.94;5029321;28;20030;-41
2023/01/30 01:00:28;;;;;;;39.33;5.70;;;;;;;7.00;100.00;101652.03;5031310;28;20330;-41
2023/01/30 01:02:53;;;;;;;24.00;4.82;;;;;;;6.99;100.00;101631.56;5030563;28;20022;-41
2023/01/30 01:05:18;;;;;;;32.20;5.57;;;;;;;6.98;100.00;101640.59;5014295;28;20030;-41
2023/01/30 01:07:44;;;;;;;24.17;5.43;;;;;;;7.02;100.00;101630.44;5015926;28;20034;-43
2023/01/30 01:10:15;;;;;;;25.58;4.65;;;;;;;7.01;100.00;101639.47;5032842;28;20029;-40
2023/01/30 01:12:43;;;;;;;25.90;4.65;;;;;;;7.03;100.00;101624.13;5015122;28;20044;-42
2023/01/30 01:15:11;;;;;;;28.52;4.53;;;;;;;7.00;100.00;101621.72;5024417;28;20033;-41
2023/01/30 01:17:36;;;;;;;24.08;4.65;;;;;;;7.01;100.00;101621.59;5029914;28;20021;-42
2023/01/30 01:20:03;;;;;;;28.25;4.95;;;;;;;6.98;100.00;101618.34;5018522;28;20033;-42
2023/01/30 01:22:28;;;;;;;22.90;3.95;;;;;;;6.98;100.00;101608.47;5029383;28;20530;-42
2023/01/30 01:24:53;;;;;;;21.05;3.97;;;;;;;6.96;100.00;101623.81;5031427;28;20025;-42
2023/01/30 01:27:19;;;;;;;35.22;5.20;;;;;;;6.97;100.00;101627.34;5033638;28;20083;-42
2023/01/30 01:29:44;;;;;;;46.33;5.28;;;;;;;6.98;100.00;101629.06;5017469;28;20064;-41
2023/01/30 01:32:09;;;;;;;27.17;4.50;;;;;;;6.98;100.00;101629.91;5032462;28;20049;-41
2023/01/30 01:34:35;;;;;;;29.20;5.05;;;;;;;7.00;100.00;101629.72;5029286;28;20095;-42
2023/01/30 01:37:00;;;;;;;21.17;4.40;;;;;;;7.00;100.00;101630.59;5027666;28;20468;-41
2023/01/30 01:41:00;;;;;;;34.00;5.30;;;;;;;7.01;100.00;101634.97;5026529;28;20535;-41
2023/01/30 01:42:11;;;;;;;26.33;3.70;;;;;;;7.02;100.00;101635.81;5028459;28;20040;-41
2023/01/30 01:45:14;;;;;;;29.75;4.18;;;;;;;7.03;100.00;101621.47;5034242;28;20388;-42
2023/01/30 01:47:44;;;;;;;28.50;4.55;;;;;;;7.05;100.00;101640.88;5017726;28;20155;-42
2023/01/30 01:50:18;;;;;;;29.83;4.75;;;;;;;7.02;100.00;101638.47;5025523;28;20059;-41
2023/01/30 01:52:45;;;;;;;27.33;5.47;;;;;;;7.02;100.00;101643.84;5029800;28;20508;-41
2023/01/30 01:55:11;;;;;;;26.02;4.13;;;;;;;7.00;100.00;101643.13;5014403;28;20025;-41
2023/01/30 01:57:44;;;;;;;18.75;4.25;;;;;;;6.96;100.00;101639.03;5031072;28;20022;-41
2023/01/30 02:00:10;;;;;;;20.20;4.50;;;;;;;6.93;100.00;101647.34;5016992;28;20543;-41
2023/01/30 02:02:37;;;;;;;31.88;4.22;;;;;;;6.88;100.00;101650.44;5021814;28;20481;-40
2023/01/30 02:05:05;;;;;;;35.25;4.60;;;;;;;6.88;100.00;101657.63;5032395;28;20116;-42
2023/01/30 02:07:50;;;;;;;24.38;4.80;;;;;;;6.89;100.00;101654.78;5017223;28;20044;-42
2023/01/30 02:10:25;;;;;;;27.90;4.05;;;;;;;6.90;100.00;101659.19;5011536;28;20038;-39
2023/01/30 02:12:51;;;;;;;28.90;4.53;;;;;;;6.93;100.00;101652.72;5023476;28;20038;-40
2023/01/30 02:15:18;;;;;;;28.38;4.10;;;;;;;6.94;100.00;101646.34;5019541;28;20032;-41
2023/01/30 02:17:43;;;;;;;27.52;4.47;;;;;;;6.96;100.00;101644.41;5026994;28;20030;-41
2023/01/30 02:20:26;;;;;;;20.20;4.20;;;;;;;6.97;100.00;101632.69;5012916;28;20037;-41
2023/01/30 02:23:06;;;;;;;37.83;4.00;;;;;;;6.99;100.00;101628.06;5030457;28;20037;-41
2023/01/30 02:25:56;;;;;;;30.77;3.50;;;;;;;7.05;100.00;101622.13;5015731;28;20038;-42
2023/01/30 02:28:45;;;;;;;23.30;3.58;;;;;;;7.07;100.00;101625.53;5027055;28;20400;-42
2023/01/30 02:31:41;;;;;;;28.23;4.22;;;;;;;7.07;100.00;101622.84;5030159;28;20045;-41
2023/01/30 02:34:18;;;;;;;18.33;4.30;;;;;;;7.06;100.00;101621.16;5023130;28;20052;-41
2023/01/30 02:36:49;;;;;;;20.10;3.67;;;;;;;7.07;100.00;101614.81;5029159;28;20112;-42
2023/01/30 02:39:25;;;;;;;30.50;4.05;;;;;;;7.07;100.00;101606.78;5024062;28;20025;-41
2023/01/30 02:42:03;;;;;;;25.13;4.47;;;;;;;7.12;100.00;101620.59;5021268;28;20041;-41
2023/01/30 02:44:38;;;;;;;37.35;4.53;;;;;;;7.11;100.00;101634.97;5009999;28;20038;-41
2023/01/30 02:47:09;;;;;;;32.55;5.60;;;;;;;7.09;100.00;101631.59;5016146;28;20026;-41
2023/01/30 02:49:38;;;;;;;26.45;4.63;;;;;;;7.10;100.00;101633.28;5022180;28;20040;-41
2023/01/30 02:52:04;;;;;;;29.10;4.03;;;;;;;7.11;100.00;101626.94;5020640;28;20030;-42
2023/01/30 02:54:29;;;;;;;34.20;4.43;;;;;;;7.11;100.00;101618.06;5030046;28;20029;-42
2023/01/30 02:56:58;;;;;;;21.92;4.95;;;;;;;7.10;100.00;101617.22;5031337;28;20033;-42
2023/01/30 02:59:36;;;;;;;29.90;4.20;;;;;;;7.11;100.00;101616.25;5019314;28;20030;-42
2023/01/30 03:02:17;;;;;;;;;;;;;;;7.14;100.00;101607.94;5027555;28;20037;-42
2023/01/30 03:04:42;;;;;;;29.20;3.92;;;;;;;7.15;100.00;101609.59;5033129;28;19912;-41
2023/01/30 03:07:44;;;;;;;27.23;4.40;;;;;;;7.13;100.00;101616.94;5030423;28;20022;-41
2023/01/30 03:10:47;;;;;;;46.45;4.78;;;;;;;7.12;100.00;101609.91;5012138;28;20029;-42
2023/01/30 03:13:47;;;;;;;41.85;5.78;;;;;;;7.15;100.00;101614.97;5025473;28;20033;-41
2023/01/30 03:16:31;;;;;;;26.02;3.67;;;;;;;7.14;100.00;101609.75;5030493;28;20061;-39
2023/01/30 03:18:59;;;;;;;26.42;4.28;;;;;;;7.16;100.00;101605.97;5017694;28;20026;-41
2023/01/30 03:21:24;;;;;;;29.30;4.70;;;;;;;7.13;100.00;101579.44;5026712;28;20064;-40
2023/01/30 03:23:49;;;;;;;38.97;4.55;;;;;;;7.13;100.00;101616.94;5027554;28;20453;-40
2023/01/30 03:26:18;;;;;;;20.27;3.60;;;;;;;7.13;100.00;101611.56;5013150;28;20385;-42
2023/01/30 03:28:45;;;;;;;22.10;3.92;;;;;;;7.14;100.00;101607.94;5026007;28;20041;-41
2023/01/30 03:31:10;;;;;;;30.33;4.55;;;;;;;7.16;100.00;101608.63;5029017;28;20032;-41
2023/01/30 03:33:36;;;;;;;27.33;4.13;;;;;;;7.13;100.00;101608.91;5024532;28;20108;-41
2023/01/30 03:36:01;;;;;;;34.72;4.80;;;;;;;7.12;100.00;101609.06;5031541;28;20034;-40
2023/01/30 03:38:27;;;;;;;37.05;4.50;;;;;;;7.09;100.00;101610.19;5019094;28;20029;-40
2023/01/30 03:40:52;;;;;;;41.60;6.50;;;;;;;7.13;100.00;101608.91;5012053;28;20029;-41
2023/01/30 03:43:17;;;;;;;30.98;3.95;;;;;;;7.17;100.00;101610.31;5031607;28;20136;-41
2023/01/30 03:45:43;;;;;;;38.75;4.28;;;;;;;7.17;100.00;101622.88;5028092;28;20056;-41
2023/01/30 03:48:08;;;;;;;41.08;5.22;;;;;;;7.16;100.00;101616.66;5011793;28;20149;-42
2023/01/30 03:50:34;;;;;;;40.53;4.80;;;;;;;7.17;100.00;101618.34;5012057;28;20535;-42
2023/01/30 03:52:59;;;;;;;20.23;4.13;;;;;;;7.16;100.00;101632.72;5023980;28;20481;-42
2023/01/30 03:55:24;;;;;;;32.65;4.72;;;;;;;7.18;100.00;101619.19;5011524;28;20026;-41
2023/01/30 03:57:54;;;;;;;37.50;5.40;;;;;;;7.19;100.00;101616.38;5030908;28;20105;-41
2023/01/30 04:00:19;;;;;;;34.75;4.75;;;;;;;7.22;100.00;101608.06;5031360;28;20033;-43
2023/01/30 04:02:45;;;;;;;30.88;3.95;;;;;;;7.20;100.00;101606.50;5030506;28;20071;-40
2023/01/30 04:05:10;;;;;;;37.17;4.50;;;;;;;7.17;100.00;101599.59;5031088;28;20049;-42
2023/01/30 04:07:35;;;;;;;34.10;3.65;;;;;;;7.17;100.00;101607.63;5030946;28;20053;-40
2023/01/30 04:10:01;;;;;;;31.20;5.35;;;;;;;7.12;100.00;101609.06;5029456;28;20436;-41
2023/01/30 04:12:26;;;;;;;26.73;3.55;;;;;;;7.08;100.00;101611.16;5028459;28;20487;-44
2023/01/30 04:14:51;;;;;;;28.35;4.22;;;;;;;7.08;100.00;101607.63;5029227;28;20052;-41
2023/01/30 04:17:17;;;;;;;21.65;3.38;;;;;;;7.08;100.00;101613.81;5024234;28;20036;-41
2023/01/30 04:19:42;;;;;;;16.70;2.90;;;;;;;7.06;100.00;101599.75;5011300;28;20026;-42
2023/01/30 04:22:07;;;;;;;23.55;3.83;;;;;;;7.01;100.00;101593.97;5023504;28;20037;-43
2023/01/30 04:24:33;;;;;;;16.88;3.05;;;;;;;7.05;100.00;101614.09;5030915;28;20029;-42
2023/01/30 04:26:58;;;;;;;21.73;3.10;;;;;;;7.15;100.00;101614.97;5026380;28;20060;-42
2023/01/30 04:29:23;;;;;;;19.33;2.78;;;;;;;7.12;100.00;101611.72;5011078;28;20493;-42
2023/01/30 04:31:49;;;;;;;27.58;2.70;;;;;;;7.20;100.00;101596.66;5016262;28;20057;-41
2023/01/30 04:34:14;;;;;;;19.25;2.30;;;;;;;7.19;100.00;101600.31;5030826;28;20025;-42
2023/01/30 04:36:40;;;;;;;22.92;2.45;;;;;;;7.20;100.00;101591.28;5030588;28;20082;-42
2023/01/30 04:39:05;;;;;;;22.58;2.75;;;;;;;7.28;100.00;101613.84;5030520;28;20029;-42
2023/01/30 04:41:31;;;;;;;20.25;2.80;;;;;;;7.30;100.00;101612.72;5027652;28;20022;-42
2023/01/30 04:43:56;;;;;;;25.58;3.25;;;;;;;7.32;100.00;101601.84;5010634;28;20465;-42
2023/01/30 04:46:21;;;;;;;22.20;3.22;;;;;;;7.36;100.00;101608.63;5023775;28;20041;-41
2023/01/30 04:48:47;;;;;;;26.70;3.92;;;;;;;7.37;100.00;101615.66;5030344;28;20040;-41
2023/01/30 04:51:12;;;;;;;27.48;3.17;;;;;;;7.39;100.00;101605.66;5029322;28;20096;-42
2023/01/30 04:53:37;;;;;;;22.23;2.95;;;;;;;7.36;100.00;101608.63;5015890;28;20108;-42
2023/01/30 04:56:03;;;;;;;32.30;3.90;;;;;;;7.35;100.00;101607.78;5020845;28;20492;-42
2023/01/30 04:58:29;;;;;;;30.77;2.78;;;;;;;7.33;100.00;101606.22;5010390;28;20034;-42
2023/01/30 05:00:54;;;;;;;29.48;4.22;;;;;;;7.26;100.00;101606.78;5023970;28;20088;-42
2023/01/30 05:03:19;;;;;;;26.08;3.40;;;;;;;7.20;100.00;101611.88;5012858;28;20087;-43
2023/01/30 05:05:46;;;;;;;31.17;3.25;;;;;;;7.17;100.00;101613.00;5010740;28;20462;-41
2023/01/30 05:08:11;;;;;;;25.00;2.97;;;;;;;7.15;100.00;101606.09;5012844;28;20033;-42
2023/01/30 05:10:36;;;;;;;38.10;3.50;;;;;;;7.10;100.00;101608.34;5030424;28;20030;-41
2023/01/30 05:13:03;;;;;;;26.38;3.35;;;;;;;7.08;100.00;101619.16;5030109;28;20057;-41
2023/01/30 05:15:28;;;;;;;33.30;4.43;;;;;;;7.04;100.00;101605.25;5030676;28;20361;-41
2023/01/30 05:17:54;;;;;;;25.27;2.90;;;;;;;6.99;100.00;101610.16;5026138;28;20034;-41
2023/01/30 05:20:19;;;;;;;35.47;3.92;;;;;;;6.92;100.00;101614.38;5011837;28;20040;-41
2023/01/30 05:22:44;;;;;;;35.15;3.83;;;;;;;6.90;100.00;101620.84;5011299;28;20058;-41
2023/01/30 05:25:10;;;;;;;24.20;3.90;;;;;;;6.80;100.00;101627.03;5010614;28;20513;-41
2023/01/30 05:27:35;;;;;;;28.75;3.00;;;;;;;6.73;100.00;101620.53;5011085;28;20053;-41
2023/01/30 05:30:01;;;;;;;53.20;5.05;;;;;;;6.68;100.00;101622.78;5010577;28;20466;-41
2023/01/30 05:32:29;;;;;;;30.85;3.40;;;;;;;6.63;100.00;101625.03;5016583;28;20038;-41
2023/01/30 05:34:54;;;;;;;;;;;;;;;6.57;100.00;101631.78;5024442;28;20029;-41
2023/01/30 05:37:19;;;;;;;39.97;3.63;;;;;;;6.49;100.00;101641.47;5018825;28;20434;-42
2023/01/30 05:39:45;;;;;;;44.78;3.50;;;;;;;6.44;100.00;101652.56;5009412;28;20034;-41
2023/01/30 05:42:10;;;;;;;36.15;4.80;;;;;;;6.45;100.00;101664.97;5009018;28;20057;-42
2023/01/30 05:44:35;;;;;;;34.75;4.07;;;;;;;6.43;100.00;101650.03;5009605;28;20042;-42
2023/01/30 05:47:01;;;;;;;37.33;4.30;;;;;;;6.41;100.00;101655.50;5014056;28;20031;-42
2023/01/30 05:49:26;;;;;;;38.63;4.68;;;;;;;6.37;100.00;101651.41;5024050;28;20041;-41
2023/01/30 05:51:51;;;;;;;44.80;4.15;;;;;;;6.33;100.00;101636.63;5026170;28;20084;-41
2023/01/30 05:54:17;;;;;;;48.25;4.90;;;;;;;6.30;100.00;101635.06;5015168;28;20029;-41
2023/01/30 05:56:42;;;;;;;39.08;4.25;;;;;;;6.29;100.00;101638.72;5027271;28;20107;-41
2023/01/30 05:59:10;;;;;;;32.72;3.80;;;;;;;6.32;100.00;101635.78;5015479;28;20472;-41
2023/01/30 06:01:35;;;;;;;30.40;4.13;;;;;;;6.32;100.00;101637.63;5027026;28;20071;-40
2023/01/30 06:04:01;;;;;;;41.22;3.88;;;;;;;6.34;100.00;101639.13;5012386;28;20060;-42
2023/01/30 06:06:27;;;;;;;37.33;3.63;;;;;;;6.32;100.00;101638.47;5027522;28;20590;-42
2023/01/30 06:08:54;;;;;;;30.73;3.63;;;;;;;6.30;100.00;101629.72;5031782;28;20185;-42
2023/01/30 06:11:19;;;;;;;45.58;4.50;;;;;;;6.26;100.00;101622.94;5040879;28;20044;-41
2023/01/30 06:13:44;;;;;;;37.67;4.25;;;;;;;6.26;100.00;101630.13;5031437;28;20075;-42
2023/01/30 06:16:11;;;;;;;38.03;4.03;;;;;;;6.28;100.00;101623.66;5031046;28;20022;-42
2023/01/30 06:18:37;;;;;;;39.20;4.47;;;;;;;6.27;100.00;101613.13;5032020;28;20084;-41
2023/01/30 06:21:03;;;;;;;31.42;4.65;;;;;;;6.22;100.00;101623.38;5031600;28;20037;-40
2023/01/30 06:23:29;;;;;;;38.50;4.53;;;;;;;6.22;100.00;101624.19;5032768;28;20030;-42
2023/01/30 06:25:54;;;;;;;39.33;4.28;;;;;;;6.27;100.00;101630.00;5027472;28;20033;-43
2023/01/30 06:28:21;;;;;;;44.33;4.68;;;;;;;6.28;100.00;101623.66;5015977;28;20491;-41
2023/01/30 06:30:46;;;;;;;41.50;3.60;;;;;;;6.26;100.00;101617.59;5013819;28;20457;-42
2023/01/30 06:33:12;;;;;;;45.35;4.35;;;;;;;6.28;100.00;101615.63;5026766;28;20082;-40
2023/01/30 06:35:38;;;;;;;33.67;3.38;;;;;;;6.28;100.00;101620.97;5031479;28;20026;-43
2023/01/30 06:38:04;;;;;;;47.28;4.03;;;;;;;6.29;100.00;101606.66;5032397;28;20021;-42
2023/01/30 06:40:29;;;;;;;48.55;5.85;;;;;;;6.26;100.00;101606.91;5030807;28;20040;-41
2023/01/30 06:42:55;;;;;;;35.80;4.50;;;;;;;6.24;100.00;101598.19;5032421;28;20392;-41
2023/01/30 06:45:20;;;;;;;39.97;5.07;;;;;;;6.21;100.00;101592.25;5033664;28;20473;-40
2023/01/30 06:47:52;;;;;;;31.95;4.05;;;;;;;6.24;100.00;101624.91;5032844;28;20035;-42
2023/01/30 06:50:20;;;;;;;48.00;4.65;;;;;;;6.22;100.00;101629.53;5033813;28;20645;-41
2023/01/30 06:52:47;;;;;;;39.25;3.95;;;;;;;6.15;100.00;101620.38;5030065;28;20060;-42
2023/01/30 06:55:14;;;;;;;38.85;3.78;;;;;;;6.17;100.00;101642.47;5029000;28;20392;-42
2023/01/30 06:57:40;;;;;;;33.50;3.80;;;;;;;6.18;100.00;101641.47;5031746;28;20028;-42
2023/01/30 07:00:08;;;;;;;31.05;3.40;;;;;;;6.14;100.00;101629.38;5030147;28;20423;-43
2023/01/30 07:02:34;;;;;;;35.90;3.78;;;;;;;6.13;100.00;101638.34;5030543;28;20040;-42
2023/01/30 07:05:03;;;;;;;41.78;3.53;;;;;;;6.14;100.00;101650.75;5031416;28;20034;-41
2023/01/30 07:07:29;;;;;;;41.28;3.78;;;;;;;6.10;100.00;101634.13;5032814;28;20481;-41
2023/01/30 07:09:55;;;;;;;37.70;3.58;;;;;;;6.09;100.00;101647.63;5032645;28;20059;-42
2023/01/30 07:12:20;;;;;;;40.53;4.82;;;;;;;6.05;100.00;101657.72;5031520;28;20447;-42
2023/01/30 07:14:45;;;;;;;34.40;4.20;;;;;;;6.02;100.00;101652.66;5032109;28;20030;-42
2023/01/30 07:17:11;;;;;;;42.08;4.28;;;;;;;6.02;100.00;101659.81;5034319;28;20032;-42
2023/01/30 07:19:37;;;;;;;32.72;3.72;;;;;;;6.06;100.00;101656.75;5033845;28;20108;-43
2023/01/30 07:22:03;;;;;;;40.97;5.70;;;;;;;6.10;100.00;101663.50;5032162;28;20033;-40
2023/01/30 07:24:28;;;;;;;33.80;4.32;;;;;;;6.13;100.00;101659.72;5031505;28;20064;-42
2023/01/30 07:26:54;;;;;;;33.00;3.78;;;;;;;6.10;100.00;101660.00;5031581;28;20421;-42
2023/01/30 07:29:19;;;;;;;37.03;3.70;;;;;;;6.10;100.00;101662.69;5031673;28;20041;-42
2023/01/30 07:31:44;;;;;;;48.35;5.35;;;;;;;6.11;100.00;101672.41;5032076;28;20106;-42
2023/01/30 07:34:10;;;;;;;49.88;6.32;;;;;;;6.14;100.00;101689.00;5032394;28;20021;-41
2023/01/30 07:36:36;;;;;;;37.58;4.68;;;;;;;6.12;100.00;101671.41;5031892;28;20024;-41
2023/01/30 07:39:02;;;;;;;50.05;4.32;;;;;;;6.13;100.00;101673.09;5031827;28;20112;-41
2023/01/30 07:41:27;;;;;;;37.47;3.40;;;;;;;6.12;100.00;101653.53;5031671;28;20472;-41
2023/01/30 07:43:53;;;;;;;33.38;4.07;;;;;;;6.14;100.00;101656.94;5033198;28;20034;-41
2023/01/30 07:46:18;;;;;;;28.92;3.40;;;;;;;6.21;100.00;101662.59;5034211;28;20022;-41
2023/01/30 07:48:44;;;;;;;34.00;4.38;;;;;;;6.24;100.00;101672.16;5032656;28;20061;-40
2023/01/30 07:51:09;;;;;;;38.47;4.60;;;;;;;6.27;100.00;101677.28;5031513;28;20021;-42
2023/01/30 07:53:35;;;;;;;37.15;4.38;;;;;;;6.26;100.00;101687.09;5031287;28;20120;-41
2023/01/30 07:56:06;;;;;;;33.50;4.80;;;;;;;6.34;100.00;101671.22;5032694;28;20524;-40
2023/01/30 07:58:31;;;;;;;38.28;4.60;;;;;;;6.41;100.00;101689.44;5033257;28;20025;-40
2023/01/30 08:00:57;;;;;;;42.78;4.55;;;;;;;6.48;100.00;101690.59;5032291;28;20395;-42
2023/01/30 08:03:22;;;;;;;46.25;4.05;;;;;;;6.56;100.00;101693.44;5033792;28;20057;-40
2023/01/30 08:05:47;;;;;;;41.45;3.67;;;;;;;6.64;100.00;101701.63;5031481;28;20022;-41
2023/01/30 08:08:13;;;;;;;42.20;4.57;;;;;;;6.73;100.00;101703.47;5031177;28;20079;-40
2023/01/30 08:10:38;;;;;;;46.13;5.80;;;;;;;6.92;100.00;101704.50;5030333;28;20048;-40
2023/01/30 08:13:04;;;;;;;39.45;4.28;;;;;;;7.01;100.00;101698.34;5031080;28;20105;-41
2023/01/30 08:15:30;;;;;;;37.13;4.07;;;;;;;7.28;100.00;101704.88;5030642;28;20116;-41
2023/01/30 08:17:56;;;;;;;40.10;4.25;;;;;;;7.60;100.00;101696.56;5030940;28;20108;-43
2023/01/30 08:20:22;;;;;;;32.25;3.75;;;;;;;7.81;100.00;101712.50;5030611;28;20539;-43
2023/01/30 08:22:47;;;;;;;42.65;4.20;;;;;;;8.00;100.00;101712.44;5030893;28;20036;-41
2023/01/30 08:25:12;;;;;;;38.97;3.65;;;;;;;8.33;100.00;101699.56;5030791;28;20120;-42
2023/01/30 08:27:37;;;;;;;42.13;3.67;;;;;;;8.60;100.00;101704.13;5030601;28;20064;-41
2023/01/30 08:30:03;;;;;;;46.78;4.13;;;;;;;8.92;100.00;101706.38;5030647;28;20029;-41
2023/01/30 08:32:29;;;;;;;45.03;4.45;;;;;;;8.99;100.00;101710.16;5030274;28;20052;-42
2023/01/30 08:34:54;;;;;;;42.25;4.57;;;;;;;9.14;100.00;101707.81;5030808;28;20117;-43
2023/01/30 08:37:19;;;;;;;36.03;4.18;;;;;;;9.52;100.00;101704.97;5030530;28;20079;-42
2023/01/30 08:39:45;;;;;;;29.83;3.78;;;;;;;9.88;100.00;101719.25;5030606;28;20025;-42
2023/01/30 08:42:11;;;;;;;46.15;3.47;;;;;;;10.03;100.00;101719.50;5030301;28;20021;-43
2023/01/30 08:44:36;;;;;;;39.83;4.93;;;;;;;10.12;100.00;101734.72;5030478;28;20053;-41
2023/01/30 08:47:01;;;;;;;37.58;3.90;;;;;;;9.86;100.00;101746.28;5029043;28;20061;-42
2023/01/30 08:49:27;;;;;;;43.30;4.18;;;;;;;9.62;100.00;101749.59;5029198;28;20111;-43
2023/01/30 08:51:52;;;;;;;52.05;5.28;;;;;;;9.11;100.00;101755.56;5030491;28;20033;-42
2023/01/30 08:54:17;;;;;;;33.58;4.10;;;;;;;8.94;100.00;101757.25;5030414;28;20030;-42
2023/01/30 08:56:43;;;;;;;41.88;5.60;;;;;;;8.92;100.00;101765.44;5030403;28;20037;-41
2023/01/30 08:59:08;;;;;;;38.58;4.03;;;;;;;9.16;100.00;101764.03;5030094;28;20102;-42
2023/01/30 09:01:34;;;;;;;40.53;4.38;;;;;;;9.09;100.00;101762.97;5030531;28;20029;-43
2023/01/30 09:03:59;;;;;;;37.05;3.28;;;;;;;8.83;100.00;101758.28;5030712;28;20556;-42
2023/01/30 09:06:24;;;;;;;45.92;4.43;;;;;;;8.57;100.00;101769.66;5030774;28;20100;-41
2023/01/30 09:08:50;;;;;;;48.03;3.55;;;;;;;8.52;100.00;101761.19;5031252;28;20053;-44
2023/01/30 09:11:15;;;;;;;48.25;5.60;;;;;;;8.59;100.00;101772.22;5029575;28;20108;-41
2023/01/30 09:13:42;;;;;;;45.45;5.00;;;;;;;8.73;100.00;101774.41;5029999;28;20083;-42
2023/01/30 09:16:09;;;;;;;36.90;3.45;;;;;;;9.57;100.00;101772.56;5031545;28;20037;-41
2023/01/30 09:18:38;;;;;;;39.38;4.63;;;;;;;10.17;100.00;101780.81;5031062;28;20017;-41
2023/01/30 09:21:04;;;;;;;37.25;3.63;;;;;;;10.09;96.86;101761.94;5030912;28;20469;-43
2023/01/30 09:23:29;;;;;;;48.65;5.90;;;;;;;9.74;99.24;101768.16;5034397;28;20033;-42
2023/01/30 09:25:54;;;;;;;38.67;4.00;;;;;;;9.52;100.00;101774.84;5034856;28;20084;-41
2023/01/30 09:28:20;;;;;;;45.85;4.28;;;;;;;9.02;100.00;101781.50;5034839;28;20053;-40
2023/01/30 09:30:45;;;;;;;47.40;4.07;;;;;;;8.65;100.00;101794.94;5035092;28;20025;-41
2023/01/30 09:33:10;;;;;;;34.55;3.63;;;;;;;8.42;100.00;101781.00;5034618;28;20054;-42
2023/01/30 09:35:36;;;;;;;43.25;4.63;;;;;;;8.23;100.00;101787.22;5034725;28;20112;-41
2023/01/30 09:38:03;;;;;;;49.45;5.63;;;;;;;8.15;100.00;101793.31;5034246;28;20061;-40
2023/01/30 09:40:30;;;;;;;50.67;4.68;;;;;;;8.13;100.00;101806.84;5034391;28;20427;-42
2023/01/30 09:43:13;;;;;;;68.32;6.70;;;;;;;8.09;100.00;101808.13;5035631;28;20485;-42
2023/01/30 09:45:42;;;;;;;42.97;4.03;;;;;;;7.99;100.00;101807.28;5021351;28;20052;-42
2023/01/30 09:48:20;;;;;;;43.80;4.88;;;;;;;7.89;100.00;101818.00;5014990;28;20112;-41
2023/01/30 09:51:01;;;;;;;40.22;3.78;;;;;;;7.87;100.00;101808.41;5013395;28;20160;-41
2023/01/30 09:53:58;;;;;;;43.92;3.92;;;;;;;7.98;100.00;101815.44;5013380;28;20095;-42
2023/01/30 09:56:24;;;;;;;52.08;4.28;;;;;;;8.17;100.00;101822.66;4962005;28;20031;-42
2023/01/30 09:59:00;;;;;;;45.22;4.38;;;;;;;8.27;100.00;101834.25;5014426;28;20046;-41
2023/01/30 10:01:50;;;;;;;48.75;5.05;;;;;;;8.36;100.00;101833.38;5013620;28;20025;-42
2023/01/30 10:04:36;;;;;;;55.83;4.88;;;;;;;8.26;100.00;101827.16;5014290;28;20088;-40
2023/01/30 10:07:10;;;;;;;72.40;5.38;;;;;;;8.28;100.00;101843.97;5012939;28;20030;-40
2023/01/30 10:10:04;;;;;;;51.72;4.97;;;;;;;8.34;100.00;101846.91;5014313;28;20032;-41
2023/01/30 10:12:43;;;;;;;43.83;4.13;;;;;;;8.25;100.00;101852.31;5013975;28;20084;-41
2023/01/30 10:15:21;;;;;;;44.20;5.20;;;;;;;8.21;100.00;101862.44;5014004;28;20036;-42
2023/01/30 10:17:49;;;;;;;48.90;5.03;;;;;;;8.21;100.00;101848.19;5013749;28;20029;-42
2023/01/30 10:20:30;;;;;;;44.13;5.03;;;;;;;8.17;100.00;101854.84;5013821;28;20466;-42
2023/01/30 10:23:08;;;;;;;62.65;4.97;;;;;;;8.34;100.00;101852.28;5012238;28;20116;-43
2023/01/30 10:25:41;;;;;;;47.20;4.65;;;;;;;8.34;100.00;101854.13;5013193;28;20056;-43
2023/01/30 10:28:19;;;;;;;45.58;4.68;;;;;;;8.38;100.00;101882.34;5011824;28;20029;-42
2023/01/30 10:30:46;;;;;;;49.13;4.03;;;;;;;8.32;100.00;101866.81;5011671;28;20065;-42
2023/01/30 10:33:20;;;;;;;50.30;6.97;;;;;;;8.16;100.00;101869.22;5011102;28;20058;-43
2023/01/30 10:35:56;;;;;;;51.90;4.57;;;;;;;8.01;100.00;101872.34;5011527;28;20033;-40
2023/01/30 10:38:29;;;;;;;49.80;5.35;;;;;;;8.09;100.00;101877.84;5012562;28;20106;-43
2023/01/30 10:41:12;;;;;;;54.88;4.95;;;;;;;8.09;100.00;101872.47;5011649;28;20025;-40
2023/01/30 10:43:44;;;;;;;39.28;4.18;;;;;;;8.24;100.00;101869.34;5012798;28;20036;-42
2023/01/30 10:46:48;;;;;;;53.88;4.93;;;;;;;8.23;100.00;101878.41;5011549;28;20517;-42
2023/01/30 10:49:35;;;;;;;46.45;4.63;;;;;;;8.31;100.00;101894.63;4996806;28;20046;-41
2023/01/30 10:52:26;;;;;;;62.72;5.80;;;;;;;8.55;100.00;101878.97;5012870;28;20033;-42
2023/01/30 10:54:56;;;;;;;57.85;5.22;;;;;;;8.99;100.00;101887.34;5012562;28;20030;-41
2023/01/30 10:58:06;;;;;;;43.50;3.78;;;;;;;9.07;100.00;101885.78;5012449;28;20052;-40
2023/01/30 11:00:40;;;;;;;46.08;4.45;;;;;;;9.02;100.00;101876.31;4970568;28;20035;-41
2023/01/30 11:03:15;;;;;;;61.85;5.07;;;;;;;9.05;100.00;101890.44;4970910;28;20478;-42
2023/01/30 11:05:43;;;;;;;44.47;5.18;;;;;;;8.83;100.00;101897.88;4995327;28;20312;-42
2023/01/30 11:08:22;;;;;;;;;;;;;;;8.89;100.00;101901.81;5011116;28;20088;-41
2023/01/30 11:10:49;;;;;;;46.90;5.00;;;;;;;9.13;100.00;101898.63;5011979;28;19932;-41
2023/01/30 11:13:19;;;;;;;53.95;6.30;;;;;;;9.11;100.00;101889.84;5012554;28;20080;-42
2023/01/30 11:15:47;;;;;;;46.13;4.57;;;;;;;9.10;100.00;101901.59;5012075;28;20419;-43
2023/01/30 11:18:13;;;;;;;59.42;5.55;;;;;;;9.02;100.00;101897.81;5010860;28;20022;-43
2023/01/30 11:20:40;;;;;;;61.20;6.05;;;;;;;8.79;100.00;101896.44;5010383;28;20034;-43
2023/01/30 11:23:08;;;;;;;64.07;4.88;;;;;;;8.62;100.00;101902.56;5011854;28;20101;-43
2023/01/30 11:25:47;;;;;;;71.55;5.75;;;;;;;8.49;100.00;101895.66;5011787;28;20465;-41
2023/01/30 11:28:18;;;;;;;42.90;5.63;;;;;;;8.49;100.00;101889.44;5012516;28;20101;-42
2023/01/30 11:30:49;;;;;;;41.63;4.15;;;;;;;8.51;100.00;101898.19;5012557;28;20061;-40